sensor_id;sensor_type;location;lat;lon;timestamp;pressure;altitude;pressure_sealevel;temperature;humidity
86100;BME280;76724;47.496;19.064;2024-03-08T00:00:05;100843.16;;;5.95;81.85
86100;BME280;76724;47.496;19.064;2024-03-08T00:00:49;100840.66;;;5.93;81.93
86100;BME280;76724;47.496;19.064;2024-03-08T00:01:25;100849.25;;;5.95;81.18
86100;BME280;76724;47.496;19.064;2024-03-08T00:01:58;100852.63;;;5.97;81.39
86100;BME280;76724;47.496;19.064;2024-03-08T00:02:34;100851.88;;;5.95;81.59
86100;BME280;76724;47.496;19.064;2024-03-08T00:03:08;100846.19;;;5.90;81.63
86100;BME280;76724;47.496;19.064;2024-03-08T00:03:44;100848.22;;;5.87;81.87
86100;BME280;76724;47.496;19.064;2024-03-08T00:04:18;100847.53;;;5.84;81.79
86100;BME280;76724;47.496;19.064;2024-03-08T00:04:52;100850.00;;;5.86;81.77
86100;BME280;76724;47.496;19.064;2024-03-08T00:05:26;100850.97;;;5.85;81.84
86100;BME280;76724;47.496;19.064;2024-03-08T00:06:01;100854.13;;;5.79;82.12
86100;BME280;76724;47.496;19.064;2024-03-08T00:06:36;100851.88;;;5.74;81.67
86100;BME280;76724;47.496;19.064;2024-03-08T00:07:10;100852.84;;;5.73;82.61
86100;BME280;76724;47.496;19.064;2024-03-08T00:07:45;100851.03;;;5.74;81.70
86100;BME280;76724;47.496;19.064;2024-03-08T00:08:20;100852.31;;;5.79;82.47
86100;BME280;76724;47.496;19.064;2024-03-08T00:08:53;100846.34;;;5.77;81.91
86100;BME280;76724;47.496;19.064;2024-03-08T00:09:27;100845.25;;;5.80;82.29
86100;BME280;76724;47.496;19.064;2024-03-08T00:10:05;100848.88;;;5.79;81.68
86100;BME280;76724;47.496;19.064;2024-03-08T00:10:41;100852.06;;;5.82;82.04
86100;BME280;76724;47.496;19.064;2024-03-08T00:11:15;100843.31;;;5.82;81.95
86100;BME280;76724;47.496;19.064;2024-03-08T00:11:49;100840.00;;;5.80;81.78
86100;BME280;76724;47.496;19.064;2024-03-08T00:12:24;100847.53;;;5.84;81.67
86100;BME280;76724;47.496;19.064;2024-03-08T00:12:59;100846.19;;;5.90;82.19
86100;BME280;76724;47.496;19.064;2024-03-08T00:13:33;100842.13;;;5.86;82.28
86100;BME280;76724;47.496;19.064;2024-03-08T00:14:08;100844.03;;;5.84;82.50
86100;BME280;76724;47.496;19.064;2024-03-08T00:14:41;100853.63;;;5.85;82.12
86100;BME280;76724;47.496;19.064;2024-03-08T00:15:16;100850.84;;;5.87;82.11
86100;BME280;76724;47.496;19.064;2024-03-08T00:15:52;100851.34;;;5.80;82.20
86100;BME280;76724;47.496;19.064;2024-03-08T00:16:26;100851.91;;;5.84;82.32
86100;BME280;76724;47.496;19.064;2024-03-08T00:17:01;100845.72;;;5.85;81.79
86100;BME280;76724;47.496;19.064;2024-03-08T00:17:35;100855.75;;;5.91;81.87
86100;BME280;76724;47.496;19.064;2024-03-08T00:18:09;100844.75;;;5.86;81.48
86100;BME280;76724;47.496;19.064;2024-03-08T00:18:44;100849.81;;;5.78;82.10
86100;BME280;76724;47.496;19.064;2024-03-08T00:19:18;100848.41;;;5.74;81.98
86100;BME280;76724;47.496;19.064;2024-03-08T00:19:52;100845.78;;;5.74;81.59
86100;BME280;76724;47.496;19.064;2024-03-08T00:20:26;100853.22;;;5.69;82.08
86100;BME280;76724;47.496;19.064;2024-03-08T00:21:01;100853.22;;;5.69;82.46
86100;BME280;76724;47.496;19.064;2024-03-08T00:21:35;100847.56;;;5.73;82.50
86100;BME280;76724;47.496;19.064;2024-03-08T00:22:09;100848.88;;;5.79;82.35
86100;BME280;76724;47.496;19.064;2024-03-08T00:22:45;100847.38;;;5.86;82.25
86100;BME280;76724;47.496;19.064;2024-03-08T00:23:19;100848.00;;;5.78;82.56
86100;BME280;76724;47.496;19.064;2024-03-08T00:23:53;100852.38;;;5.68;82.47
86100;BME280;76724;47.496;19.064;2024-03-08T00:24:30;100848.50;;;5.72;81.85
86100;BME280;76724;47.496;19.064;2024-03-08T00:25:05;100846.84;;;5.71;82.46
86100;BME280;76724;47.496;19.064;2024-03-08T00:25:42;100851.91;;;5.84;82.16
86100;BME280;76724;47.496;19.064;2024-03-08T00:26:16;100847.63;;;5.83;81.79
86100;BME280;76724;47.496;19.064;2024-03-08T00:26:50;100845.38;;;5.78;81.70
86100;BME280;76724;47.496;19.064;2024-03-08T00:27:24;100839.72;;;5.83;81.29
86100;BME280;76724;47.496;19.064;2024-03-08T00:27:58;100843.19;;;5.83;81.70
86100;BME280;76724;47.496;19.064;2024-03-08T00:28:33;100840.25;;;5.77;82.43
86100;BME280;76724;47.496;19.064;2024-03-08T00:29:10;100841.34;;;5.74;81.98
86100;BME280;76724;47.496;19.064;2024-03-08T00:29:44;100836.13;;;5.84;81.95
86100;BME280;76724;47.496;19.064;2024-03-08T00:30:19;100844.63;;;5.88;81.56
86100;BME280;76724;47.496;19.064;2024-03-08T00:30:52;100849.56;;;5.81;81.96
86100;BME280;76724;47.496;19.064;2024-03-08T00:31:26;100843.47;;;5.80;82.19
86100;BME280;76724;47.496;19.064;2024-03-08T00:32:01;100841.66;;;5.81;81.74
86100;BME280;76724;47.496;19.064;2024-03-08T00:32:35;100843.31;;;5.82;82.05
86100;BME280;76724;47.496;19.064;2024-03-08T00:33:11;100839.16;;;5.79;82.62
86100;BME280;76724;47.496;19.064;2024-03-08T00:33:45;100845.00;;;5.83;81.97
86100;BME280;76724;47.496;19.064;2024-03-08T00:34:19;100838.72;;;5.74;82.33
86100;BME280;76724;47.496;19.064;2024-03-08T00:34:53;100839.78;;;5.72;82.33
86100;BME280;76724;47.496;19.064;2024-03-08T00:35:30;100836.09;;;5.74;82.35
86100;BME280;76724;47.496;19.064;2024-03-08T00:36:05;100839.53;;;5.75;82.09
86100;BME280;76724;47.496;19.064;2024-03-08T00:36:39;100840.09;;;5.78;81.77
86100;BME280;76724;47.496;19.064;2024-03-08T00:37:13;100837.63;;;5.77;81.75
86100;BME280;76724;47.496;19.064;2024-03-08T00:37:47;100832.34;;;5.77;81.64
86100;BME280;76724;47.496;19.064;2024-03-08T00:38:21;100841.41;;;5.84;82.32
86100;BME280;76724;47.496;19.064;2024-03-08T00:38:56;100842.50;;;5.81;82.21
86100;BME280;76724;47.496;19.064;2024-03-08T00:39:30;100837.56;;;5.88;82.01
86100;BME280;76724;47.496;19.064;2024-03-08T00:40:05;100833.50;;;5.84;82.31
86100;BME280;76724;47.496;19.064;2024-03-08T00:40:41;100833.25;;;5.87;82.16
86100;BME280;76724;47.496;19.064;2024-03-08T00:41:15;100835.88;;;5.87;83.00
86100;BME280;76724;47.496;19.064;2024-03-08T00:41:48;100833.41;;;5.85;81.80
86100;BME280;76724;47.496;19.064;2024-03-08T00:42:23;100839.00;;;5.92;81.81
86100;BME280;76724;47.496;19.064;2024-03-08T00:42:58;100835.16;;;5.96;82.09
86100;BME280;76724;47.496;19.064;2024-03-08T00:43:32;100834.56;;;5.93;81.88
86100;BME280;76724;47.496;19.064;2024-03-08T00:44:06;100833.47;;;5.95;81.71
86100;BME280;76724;47.496;19.064;2024-03-08T00:44:40;100838.75;;;5.95;81.71
86100;BME280;76724;47.496;19.064;2024-03-08T00:45:14;100835.16;;;5.96;81.51
86100;BME280;76724;47.496;19.064;2024-03-08T00:45:48;100834.19;;;5.97;81.62
86100;BME280;76724;47.496;19.064;2024-03-08T00:46:22;100838.63;;;5.97;81.11
86100;BME280;76724;47.496;19.064;2024-03-08T00:46:56;100832.84;;;6.03;81.01
86100;BME280;76724;47.496;19.064;2024-03-08T00:47:30;100829.94;;;6.06;80.70
86100;BME280;76724;47.496;19.064;2024-03-08T00:48:05;100830.53;;;6.09;80.73
86100;BME280;76724;47.496;19.064;2024-03-08T00:48:40;100834.44;;;6.15;80.83
86100;BME280;76724;47.496;19.064;2024-03-08T00:49:17;100831.44;;;6.20;80.24
86100;BME280;76724;47.496;19.064;2024-03-08T00:49:51;100837.00;;;6.26;80.02
86100;BME280;76724;47.496;19.064;2024-03-08T00:50:25;100831.28;;;6.21;80.15
86100;BME280;76724;47.496;19.064;2024-03-08T00:50:59;100832.47;;;6.07;80.08
86100;BME280;76724;47.496;19.064;2024-03-08T00:51:33;100833.00;;;6.01;80.72
86100;BME280;76724;47.496;19.064;2024-03-08T00:52:08;100836.00;;;5.97;81.00
86100;BME280;76724;47.496;19.064;2024-03-08T00:52:42;100825.56;;;5.95;80.98
86100;BME280;76724;47.496;19.064;2024-03-08T00:53:16;100832.03;;;6.02;81.27
86100;BME280;76724;47.496;19.064;2024-03-08T00:53:50;100832.25;;;5.99;80.88
86100;BME280;76724;47.496;19.064;2024-03-08T00:54:24;100839.59;;;5.96;80.86
86100;BME280;76724;47.496;19.064;2024-03-08T00:54:58;100836.97;;;5.96;80.88
86100;BME280;76724;47.496;19.064;2024-03-08T00:55:32;100831.31;;;5.89;80.79
86100;BME280;76724;47.496;19.064;2024-03-08T00:56:09;100833.50;;;5.84;80.83
86100;BME280;76724;47.496;19.064;2024-03-08T00:56:46;100838.06;;;5.82;80.67
86100;BME280;76724;47.496;19.064;2024-03-08T00:57:20;100836.13;;;5.84;81.04
86100;BME280;76724;47.496;19.064;2024-03-08T00:57:56;100831.13;;;5.81;80.71
86100;BME280;76724;47.496;19.064;2024-03-08T00:58:30;100826.41;;;5.75;80.65
86100;BME280;76724;47.496;19.064;2024-03-08T00:59:04;100826.13;;;5.78;81.62
86100;BME280;76724;47.496;19.064;2024-03-08T00:59:38;100832.50;;;5.75;81.38
86100;BME280;76724;47.496;19.064;2024-03-08T01:00:13;100828.06;;;5.76;81.31
86100;BME280;76724;47.496;19.064;2024-03-08T01:00:48;100835.44;;;5.82;80.81
86100;BME280;76724;47.496;19.064;2024-03-08T01:01:22;100836.41;;;5.81;80.70
86100;BME280;76724;47.496;19.064;2024-03-08T01:01:56;100832.09;;;5.80;81.20
86100;BME280;76724;47.496;19.064;2024-03-08T01:02:30;100831.72;;;5.84;80.51
86100;BME280;76724;47.496;19.064;2024-03-08T01:03:05;100838.44;;;5.77;80.91
86100;BME280;76724;47.496;19.064;2024-03-08T01:03:39;100830.44;;;5.79;81.23
86100;BME280;76724;47.496;19.064;2024-03-08T01:04:14;100832.81;;;5.82;81.14
86100;BME280;76724;47.496;19.064;2024-03-08T01:04:48;100835.44;;;5.82;81.13
86100;BME280;76724;47.496;19.064;2024-03-08T01:05:22;100826.25;;;5.76;81.22
86100;BME280;76724;47.496;19.064;2024-03-08T01:05:58;100832.22;;;5.78;81.46
86100;BME280;76724;47.496;19.064;2024-03-08T01:06:35;100832.81;;;5.82;80.88
86100;BME280;76724;47.496;19.064;2024-03-08T01:07:10;100828.66;;;5.79;81.38
86100;BME280;76724;47.496;19.064;2024-03-08T01:07:44;100825.44;;;5.76;81.22
86100;BME280;76724;47.496;19.064;2024-03-08T01:08:20;100830.69;;;5.76;81.58
86100;BME280;76724;47.496;19.064;2024-03-08T01:08:54;100824.31;;;5.78;81.21
86100;BME280;76724;47.496;19.064;2024-03-08T01:09:29;100825.59;;;5.84;81.20
86100;BME280;76724;47.496;19.064;2024-03-08T01:10:03;100817.72;;;5.84;81.35
86100;BME280;76724;47.496;19.064;2024-03-08T01:10:37;100825.84;;;5.92;81.22
86100;BME280;76724;47.496;19.064;2024-03-08T01:11:13;100825.03;;;5.92;81.67
86100;BME280;76724;47.496;19.064;2024-03-08T01:11:48;100826.44;;;5.96;81.16
86100;BME280;76724;47.496;19.064;2024-03-08T01:12:22;100827.97;;;5.98;80.79
86100;BME280;76724;47.496;19.064;2024-03-08T01:12:56;100826.31;;;5.97;80.80
86100;BME280;76724;47.496;19.064;2024-03-08T01:13:31;100813.97;;;5.98;80.45
86100;BME280;76724;47.496;19.064;2024-03-08T01:14:05;100823.22;;;5.92;80.51
86100;BME280;76724;47.496;19.064;2024-03-08T01:14:39;100825.56;;;5.95;80.55
86100;BME280;76724;47.496;19.064;2024-03-08T01:15:13;100821.72;;;5.99;80.71
86100;BME280;76724;47.496;19.064;2024-03-08T01:15:48;100818.03;;;6.02;80.67
86100;BME280;76724;47.496;19.064;2024-03-08T01:16:22;100820.66;;;6.02;80.87
86100;BME280;76724;47.496;19.064;2024-03-08T01:16:56;100820.66;;;6.02;80.45
86100;BME280;76724;47.496;19.064;2024-03-08T01:17:30;100827.22;;;6.07;80.53
86100;BME280;76724;47.496;19.064;2024-03-08T01:18:05;100820.53;;;6.03;80.54
86100;BME280;76724;47.496;19.064;2024-03-08T01:18:38;100819.09;;;5.99;80.31
86100;BME280;76724;47.496;19.064;2024-03-08T01:19:13;100815.50;;;6.00;80.69
86100;BME280;76724;47.496;19.064;2024-03-08T01:19:47;100812.88;;;6.00;80.53
86100;BME280;76724;47.496;19.064;2024-03-08T01:20:21;100821.56;;;5.91;80.59
86100;BME280;76724;47.496;19.064;2024-03-08T01:20:55;100822.59;;;5.89;81.03
86100;BME280;76724;47.496;19.064;2024-03-08T01:21:29;100811.38;;;5.87;80.32
86100;BME280;76724;47.496;19.064;2024-03-08T01:22:03;100817.22;;;5.90;80.64
86100;BME280;76724;47.496;19.064;2024-03-08T01:22:37;100820.81;;;5.89;80.38
86100;BME280;76724;47.496;19.064;2024-03-08T01:23:11;100816.16;;;5.93;81.08
86100;BME280;76724;47.496;19.064;2024-03-08T01:23:46;100807.09;;;5.85;81.04
86100;BME280;76724;47.496;19.064;2024-03-08T01:24:20;100814.59;;;5.90;80.16
86100;BME280;76724;47.496;19.064;2024-03-08T01:24:54;100819.75;;;5.92;80.46
86100;BME280;76724;47.496;19.064;2024-03-08T01:25:28;100821.56;;;5.91;80.41
86100;BME280;76724;47.496;19.064;2024-03-08T01:26:02;100813.53;;;5.93;80.03
86100;BME280;76724;47.496;19.064;2024-03-08T01:26:36;100819.38;;;5.96;80.11
86100;BME280;76724;47.496;19.064;2024-03-08T01:27:10;100825.47;;;5.97;80.46
86100;BME280;76724;47.496;19.064;2024-03-08T01:27:45;100822.47;;;6.01;80.31
86100;BME280;76724;47.496;19.064;2024-03-08T01:28:19;100818.59;;;6.05;80.26
86100;BME280;76724;47.496;19.064;2024-03-08T01:28:53;100817.75;;;6.05;80.09
86100;BME280;76724;47.496;19.064;2024-03-08T01:29:29;100823.84;;;6.05;80.34
86100;BME280;76724;47.496;19.064;2024-03-08T01:30:06;100820.25;;;6.06;80.10
86100;BME280;76724;47.496;19.064;2024-03-08T01:30:43;100823.28;;;6.02;80.56
86100;BME280;76724;47.496;19.064;2024-03-08T01:31:19;100824.50;;;5.98;80.19
86100;BME280;76724;47.496;19.064;2024-03-08T01:31:53;100824.19;;;5.91;80.25
86100;BME280;76724;47.496;19.064;2024-03-08T01:32:27;100823.22;;;5.92;79.87
86100;BME280;76724;47.496;19.064;2024-03-08T01:33:01;100825.84;;;5.92;79.89
86100;BME280;76724;47.496;19.064;2024-03-08T01:33:36;100821.63;;;5.90;79.79
86100;BME280;76724;47.496;19.064;2024-03-08T01:34:10;100821.56;;;5.91;80.11
86100;BME280;76724;47.496;19.064;2024-03-08T01:34:44;100827.66;;;5.92;80.06
86100;BME280;76724;47.496;19.064;2024-03-08T01:35:19;100832.41;;;5.98;80.66
86100;BME280;76724;47.496;19.064;2024-03-08T01:35:53;100826.84;;;6.01;79.74
86100;BME280;76724;47.496;19.064;2024-03-08T01:36:27;100827.66;;;5.92;79.33
86100;BME280;76724;47.496;19.064;2024-03-08T01:37:01;100829.53;;;5.90;79.94
86100;BME280;76724;47.496;19.064;2024-03-08T01:37:36;100832.16;;;5.90;79.99
86100;BME280;76724;47.496;19.064;2024-03-08T01:38:09;100812.59;;;5.82;79.66
86100;BME280;76724;47.496;19.064;2024-03-08T01:38:43;100827.66;;;5.92;79.91
86100;BME280;76724;47.496;19.064;2024-03-08T01:39:17;100828.59;;;5.91;79.78
86100;BME280;76724;47.496;19.064;2024-03-08T01:39:51;100819.63;;;5.93;79.90
86100;BME280;76724;47.496;19.064;2024-03-08T01:40:26;100825.03;;;5.92;80.15
86100;BME280;76724;47.496;19.064;2024-03-08T01:41:00;100816.66;;;5.87;80.29
86100;BME280;76724;47.496;19.064;2024-03-08T01:41:34;100822.72;;;5.87;80.12
86100;BME280;76724;47.496;19.064;2024-03-08T01:42:09;100826.88;;;5.90;80.69
86100;BME280;76724;47.496;19.064;2024-03-08T01:42:45;100825.56;;;5.95;80.27
86100;BME280;76724;47.496;19.064;2024-03-08T01:43:27;100826.31;;;5.97;80.26
86100;BME280;76724;47.496;19.064;2024-03-08T01:44:02;100824.38;;;5.99;79.61
86100;BME280;76724;47.496;19.064;2024-03-08T01:44:39;100828.34;;;5.94;79.94
86100;BME280;76724;47.496;19.064;2024-03-08T01:45:13;100826.31;;;5.97;79.34
86100;BME280;76724;47.496;19.064;2024-03-08T01:45:48;100823.28;;;6.02;79.56
86100;BME280;76724;47.496;19.064;2024-03-08T01:46:23;100823.41;;;6.00;79.99
86100;BME280;76724;47.496;19.064;2024-03-08T01:46:57;100814.94;;;5.97;80.14
86100;BME280;76724;47.496;19.064;2024-03-08T01:47:32;100816.59;;;5.98;80.56
86100;BME280;76724;47.496;19.064;2024-03-08T01:48:06;100818.97;;;6.01;80.34
86100;BME280;76724;47.496;19.064;2024-03-08T01:48:41;100814.13;;;5.96;80.06
86100;BME280;76724;47.496;19.064;2024-03-08T01:49:15;100818.78;;;5.93;79.88
86100;BME280;76724;47.496;19.064;2024-03-08T01:49:52;100818.78;;;5.93;79.96
86100;BME280;76724;47.496;19.064;2024-03-08T01:50:26;100811.25;;;5.88;79.38
86100;BME280;76724;47.496;19.064;2024-03-08T01:51:00;100817.97;;;5.92;79.72
86100;BME280;76724;47.496;19.064;2024-03-08T01:51:34;100823.44;;;5.89;79.86
86100;BME280;76724;47.496;19.064;2024-03-08T01:52:08;100815.69;;;5.88;79.75
86100;BME280;76724;47.496;19.064;2024-03-08T01:52:43;100817.00;;;5.93;79.75
86100;BME280;76724;47.496;19.064;2024-03-08T01:53:19;100817.81;;;5.94;79.87
86100;BME280;76724;47.496;19.064;2024-03-08T01:53:54;100820.31;;;5.95;79.26
86100;BME280;76724;47.496;19.064;2024-03-08T01:54:30;100816.84;;;5.95;79.24
86100;BME280;76724;47.496;19.064;2024-03-08T01:55:05;100822.13;;;5.95;79.79
86100;BME280;76724;47.496;19.064;2024-03-08T01:55:42;100813.88;;;5.88;79.09
86100;BME280;76724;47.496;19.064;2024-03-08T01:56:17;100814.97;;;5.85;78.98
86100;BME280;76724;47.496;19.064;2024-03-08T01:56:52;100818.97;;;5.80;79.45
86100;BME280;76724;47.496;19.064;2024-03-08T01:57:28;100816.06;;;5.83;78.90
86100;BME280;76724;47.496;19.064;2024-03-08T01:58:04;100819.00;;;5.90;79.24
86100;BME280;76724;47.496;19.064;2024-03-08T01:58:41;100813.75;;;5.90;79.18
86100;BME280;76724;47.496;19.064;2024-03-08T01:59:19;100819.75;;;5.92;79.21
86100;BME280;76724;47.496;19.064;2024-03-08T01:59:53;100812.06;;;5.89;79.60
86100;BME280;76724;47.496;19.064;2024-03-08T02:00:30;100815.91;;;5.96;79.86
86100;BME280;76724;47.496;19.064;2024-03-08T02:01:05;100809.94;;;5.94;79.46
86100;BME280;76724;47.496;19.064;2024-03-08T02:01:40;100824.53;;;5.87;79.25
86100;BME280;76724;47.496;19.064;2024-03-08T02:02:17;100819.41;;;5.85;79.78
86100;BME280;76724;47.496;19.064;2024-03-08T02:02:54;100808.69;;;5.77;79.73
86100;BME280;76724;47.496;19.064;2024-03-08T02:03:28;100817.63;;;5.85;80.11
86100;BME280;76724;47.496;19.064;2024-03-08T02:04:04;100815.09;;;5.84;79.84
86100;BME280;76724;47.496;19.064;2024-03-08T02:04:40;100820.09;;;5.87;79.79
86100;BME280;76724;47.496;19.064;2024-03-08T02:05:18;100813.19;;;5.86;79.75
86100;BME280;76724;47.496;19.064;2024-03-08T02:05:52;100815.34;;;5.81;79.25
86100;BME280;76724;47.496;19.064;2024-03-08T02:06:26;100817.72;;;5.84;79.57
86100;BME280;76724;47.496;19.064;2024-03-08T02:07:00;100819.41;;;5.85;79.42
86100;BME280;76724;47.496;19.064;2024-03-08T02:07:34;100818.56;;;5.84;79.21
86100;BME280;76724;47.496;19.064;2024-03-08T02:08:09;100824.53;;;5.87;79.47
86100;BME280;76724;47.496;19.064;2024-03-08T02:08:47;100815.81;;;5.86;79.05
86100;BME280;76724;47.496;19.064;2024-03-08T02:09:22;100819.28;;;5.87;79.12
86100;BME280;76724;47.496;19.064;2024-03-08T02:09:58;100820.81;;;5.89;79.38
86100;BME280;76724;47.496;19.064;2024-03-08T02:10:33;100820.59;;;5.92;78.97
86100;BME280;76724;47.496;19.064;2024-03-08T02:11:07;100815.78;;;5.97;79.05
86100;BME280;76724;47.496;19.064;2024-03-08T02:11:41;100822.88;;;6.06;78.67
86100;BME280;76724;47.496;19.064;2024-03-08T02:12:15;100819.72;;;6.13;78.09
86100;BME280;76724;47.496;19.064;2024-03-08T02:12:50;100815.03;;;6.16;78.07
86100;BME280;76724;47.496;19.064;2024-03-08T02:13:24;100820.16;;;6.18;78.09
86100;BME280;76724;47.496;19.064;2024-03-08T02:13:58;100821.41;;;6.14;77.80
86100;BME280;76724;47.496;19.064;2024-03-08T02:14:32;100825.84;;;6.13;77.33
86100;BME280;76724;47.496;19.064;2024-03-08T02:15:07;100825.00;;;6.13;77.24
86100;BME280;76724;47.496;19.064;2024-03-08T02:15:55;100820.00;;;6.09;78.18
86100;BME280;76724;47.496;19.064;2024-03-08T02:16:29;100824.16;;;6.12;77.68
86100;BME280;76724;47.496;19.064;2024-03-08T02:17:04;100823.31;;;6.11;77.79
86100;BME280;76724;47.496;19.064;2024-03-08T02:17:38;100822.88;;;6.06;78.25
86100;BME280;76724;47.496;19.064;2024-03-08T02:18:12;100827.91;;;6.09;78.21
86100;BME280;76724;47.496;19.064;2024-03-08T02:18:46;100835.78;;;6.09;77.51
86100;BME280;76724;47.496;19.064;2024-03-08T02:19:20;100823.47;;;6.10;77.11
86100;BME280;76724;47.496;19.064;2024-03-08T02:19:54;100834.28;;;6.07;77.59
86100;BME280;76724;47.496;19.064;2024-03-08T02:20:33;100827.00;;;5.99;77.50
86100;BME280;76724;47.496;19.064;2024-03-08T02:21:07;100829.38;;;6.02;76.70
86100;BME280;76724;47.496;19.064;2024-03-08T02:21:43;100833.00;;;6.01;76.85
86100;BME280;76724;47.496;19.064;2024-03-08T02:22:17;100825.34;;;5.98;76.71
86100;BME280;76724;47.496;19.064;2024-03-08T02:22:51;100827.00;;;5.99;76.77
86100;BME280;76724;47.496;19.064;2024-03-08T02:23:26;100822.31;;;6.03;77.10
86100;BME280;76724;47.496;19.064;2024-03-08T02:24:00;100831.28;;;6.00;76.69
86100;BME280;76724;47.496;19.064;2024-03-08T02:24:34;100830.47;;;6.00;76.92
86100;BME280;76724;47.496;19.064;2024-03-08T02:25:08;100828.94;;;5.97;76.08
86100;BME280;76724;47.496;19.064;2024-03-08T02:25:43;100819.47;;;5.95;76.25
86100;BME280;76724;47.496;19.064;2024-03-08T02:26:16;100825.97;;;5.91;76.00
86100;BME280;76724;47.496;19.064;2024-03-08T02:26:50;100829.53;;;5.90;76.46
86100;BME280;76724;47.496;19.064;2024-03-08T02:27:24;100835.75;;;5.89;75.48
86100;BME280;76724;47.496;19.064;2024-03-08T02:28:04;100831.81;;;5.94;76.55
86100;BME280;76724;47.496;19.064;2024-03-08T02:28:38;100831.13;;;5.92;75.92
86100;BME280;76724;47.496;19.064;2024-03-08T02:29:13;100831.47;;;5.88;75.72
86100;BME280;76724;47.496;19.064;2024-03-08T02:29:48;100829.53;;;5.90;75.61
86100;BME280;76724;47.496;19.064;2024-03-08T02:30:22;100823.09;;;5.94;75.59
86100;BME280;76724;47.496;19.064;2024-03-08T02:30:56;100826.31;;;5.97;75.94
86100;BME280;76724;47.496;19.064;2024-03-08T02:31:31;100829.25;;;6.04;75.81
86100;BME280;76724;47.496;19.064;2024-03-08T02:32:05;100825.09;;;6.01;75.39
86100;BME280;76724;47.496;19.064;2024-03-08T02:32:39;100832.84;;;6.03;75.89
86100;BME280;76724;47.496;19.064;2024-03-08T02:33:14;100816.84;;;5.95;76.32
86100;BME280;76724;47.496;19.064;2024-03-08T02:33:52;100822.25;;;5.93;76.03
86100;BME280;76724;47.496;19.064;2024-03-08T02:34:26;100828.22;;;5.95;75.16
86100;BME280;76724;47.496;19.064;2024-03-08T02:35:00;100813.19;;;5.86;74.95
86100;BME280;76724;47.496;19.064;2024-03-08T02:35:35;100825.97;;;5.91;75.48
86100;BME280;76724;47.496;19.064;2024-03-08T02:36:09;100818.06;;;5.91;75.14
86100;BME280;76724;47.496;19.064;2024-03-08T02:36:43;100813.19;;;5.86;75.54
86100;BME280;76724;47.496;19.064;2024-03-08T02:37:17;100817.47;;;5.87;75.95
86100;BME280;76724;47.496;19.064;2024-03-08T02:37:51;100814.84;;;5.87;76.25
86100;BME280;76724;47.496;19.064;2024-03-08T02:38:26;100819.88;;;5.90;75.96
86100;BME280;76724;47.496;19.064;2024-03-08T02:39:01;100819.88;;;5.90;75.78
86100;BME280;76724;47.496;19.064;2024-03-08T02:39:35;100824.88;;;5.93;75.44
86100;BME280;76724;47.496;19.064;2024-03-08T02:40:10;100819.63;;;5.93;75.31
86100;BME280;76724;47.496;19.064;2024-03-08T02:40:48;100818.53;;;5.96;75.90
86100;BME280;76724;47.496;19.064;2024-03-08T02:41:22;100819.09;;;5.99;75.84
86100;BME280;76724;47.496;19.064;2024-03-08T02:41:56;100823.66;;;5.97;75.46
86100;BME280;76724;47.496;19.064;2024-03-08T02:42:30;100815.25;;;6.03;75.58
86100;BME280;76724;47.496;19.064;2024-03-08T02:43:04;100814.13;;;5.96;75.17
86100;BME280;76724;47.496;19.064;2024-03-08T02:43:38;100825.13;;;5.90;74.86
86100;BME280;76724;47.496;19.064;2024-03-08T02:44:12;100824.66;;;5.96;74.54
86100;BME280;76724;47.496;19.064;2024-03-08T02:44:47;100816.75;;;5.96;73.94
86100;BME280;76724;47.496;19.064;2024-03-08T02:45:21;100830.59;;;5.98;74.48
86100;BME280;76724;47.496;19.064;2024-03-08T02:45:55;100827.88;;;5.89;74.98
86100;BME280;76724;47.496;19.064;2024-03-08T02:46:29;100830.16;;;5.93;74.90
86100;BME280;76724;47.496;19.064;2024-03-08T02:47:04;100825.38;;;5.87;74.31
86100;BME280;76724;47.496;19.064;2024-03-08T02:47:39;100829.09;;;5.84;74.58
86100;BME280;76724;47.496;19.064;2024-03-08T02:48:14;100827.88;;;5.89;74.01
86100;BME280;76724;47.496;19.064;2024-03-08T02:48:49;100825.59;;;5.84;74.96
86100;BME280;76724;47.496;19.064;2024-03-08T02:49:23;100825.19;;;5.79;74.43
86100;BME280;76724;47.496;19.064;2024-03-08T02:49:57;100825.88;;;5.81;74.48
86100;BME280;76724;47.496;19.064;2024-03-08T02:50:31;100821.44;;;5.81;74.30
86100;BME280;76724;47.496;19.064;2024-03-08T02:51:05;100825.06;;;5.80;74.46
86100;BME280;76724;47.496;19.064;2024-03-08T02:51:39;100828.38;;;5.82;74.79
86100;BME280;76724;47.496;19.064;2024-03-08T02:52:14;100823.69;;;5.86;74.31
86100;BME280;76724;47.496;19.064;2024-03-08T02:52:50;100829.47;;;5.80;74.14
86100;BME280;76724;47.496;19.064;2024-03-08T02:53:24;100823.69;;;5.86;73.86
86100;BME280;76724;47.496;19.064;2024-03-08T02:53:58;100831.59;;;5.86;74.73
86100;BME280;76724;47.496;19.064;2024-03-08T02:54:32;100826.72;;;5.81;75.32
86100;BME280;76724;47.496;19.064;2024-03-08T02:55:07;100825.50;;;5.85;74.71
86100;BME280;76724;47.496;19.064;2024-03-08T02:55:46;100828.34;;;5.94;74.46
86100;BME280;76724;47.496;19.064;2024-03-08T02:56:21;100828.94;;;5.97;74.96
86100;BME280;76724;47.496;19.064;2024-03-08T02:56:56;100823.22;;;5.92;74.67
86100;BME280;76724;47.496;19.064;2024-03-08T02:57:30;100825.38;;;5.87;74.40
86100;BME280;76724;47.496;19.064;2024-03-08T02:58:05;100833.97;;;5.89;74.38
86100;BME280;76724;47.496;19.064;2024-03-08T02:58:39;100827.50;;;5.93;74.12
86100;BME280;76724;47.496;19.064;2024-03-08T02:59:13;100828.22;;;5.95;74.21
86100;BME280;76724;47.496;19.064;2024-03-08T02:59:48;100830.59;;;5.98;73.79
86100;BME280;76724;47.496;19.064;2024-03-08T03:00:22;100832.13;;;6.01;73.70
86100;BME280;76724;47.496;19.064;2024-03-08T03:00:56;100829.38;;;6.02;73.50
86100;BME280;76724;47.496;19.064;2024-03-08T03:01:31;100824.97;;;6.03;73.87